Time,TemperatureF,DewpointF,PressureIn,WindDirection,WindDirectionDegrees,WindSpeedMPH,WindSpeedGustMPH,Humidity,HourlyPrecipIn,Conditions,Clouds,dailyrainin,SoftwareType,DateUTC
2013-02-21 00:00:00,33.8,24.0,30.23,East,81,2.0,4.0,68,0.00,,,0.00,weatherlink.com 1.10,2013-02-21 06:00:00,
2013-02-21 00:15:00,33.9,24.0,30.23,ENE,72,2.0,5.0,66,0.00,,,0.00,weatherlink.com 1.10,2013-02-21 06:15:00,
2013-02-21 00:30:00,34.0,24.0,30.23,ENE,72,2.0,3.0,66,0.00,,,0.00,weatherlink.com 1.10,2013-02-21 06:30:00,
2013-02-21 00:45:00,34.1,24.0,30.22,NE,41,3.0,3.0,66,0.00,,,0.00,weatherlink.com 1.10,2013-02-21 06:45:00,
2013-02-21 01:00:00,34.2,23.0,30.22,ENE,72,4.0,5.0,65,0.00,,,0.00,weatherlink.com 1.10,2013-02-21 07:00:00,
2013-02-21 01:15:00,34.2,23.0,30.22,ENE,72,1.0,4.0,65,0.00,,,0.00,weatherlink.com 1.10,2013-02-21 07:15:00,
2013-02-21 01:30:00,34.3,24.0,30.22,East,82,1.0,3.0,66,0.00,,,0.00,weatherlink.com 1.10,2013-02-21 07:30:00,
2013-02-21 01:45:00,34.3,24.0,30.21,ENE,77,1.0,3.0,66,0.00,,,0.00,weatherlink.com 1.10,2013-02-21 07:45:00,
2013-02-21 02:00:00,34.3,24.0,30.20,ENE,73,2.0,4.0,65,0.00,,,0.00,weatherlink.com 1.10,2013-02-21 08:00:00,
2013-02-21 02:15:00,34.5,24.0,30.22,ENE,65,0.0,3.0,65,0.00,,,0.00,weatherlink.com 1.10,2013-02-21 08:15:00,
2013-02-21 02:30:00,34.5,24.0,30.21,ENE,64,3.0,5.0,66,0.00,,,0.00,weatherlink.com 1.10,2013-02-21 08:30:00,
2013-02-21 02:45:00,34.0,26.0,30.20,ENE,78,1.0,2.0,71,0.00,,,0.00,weatherlink.com 1.10,2013-02-21 08:45:00,
2013-02-21 03:00:00,33.6,25.0,30.21,East,79,4.0,5.0,71,0.00,,,0.00,weatherlink.com 1.10,2013-02-21 09:00:00,
2013-02-21 03:15:00,33.5,25.0,30.20,ENE,72,1.0,4.0,72,0.00,,,0.00,weatherlink.com 1.10,2013-02-21 09:15:00,
2013-02-21 03:30:00,33.5,25.0,30.19,ENE,72,1.0,3.0,72,0.00,,,0.00,weatherlink.com 1.10,2013-02-21 09:30:00,
2013-02-21 03:45:00,33.5,25.0,30.17,East,79,4.0,6.0,71,0.00,,,0.00,weatherlink.com 1.10,2013-02-21 09:45:00,
2013-02-21 04:00:00,33.6,25.0,30.17,East,88,3.0,5.0,71,0.00,,,0.00,weatherlink.com 1.10,2013-02-21 10:00:00,
2013-02-21 04:15:00,33.7,25.0,30.17,East,82,1.0,6.0,70,0.00,,,0.00,weatherlink.com 1.10,2013-02-21 10:15:00,
2013-02-21 04:30:00,33.7,25.0,30.16,East,91,0.0,5.0,70,0.00,,,0.00,weatherlink.com 1.10,2013-02-21 10:30:00,
2013-02-21 04:45:00,33.8,24.0,30.16,NE,53,1.0,6.0,68,0.00,,,0.00,weatherlink.com 1.10,2013-02-21 10:45:00,
2013-02-21 05:00:00,33.9,24.0,30.16,ESE,108,3.0,5.0,68,0.00,,,0.00,weatherlink.com 1.10,2013-02-21 11:00:00,
2013-02-21 05:15:00,33.9,25.0,30.16,ENE,65,1.0,4.0,69,0.00,,,0.00,weatherlink.com 1.10,2013-02-21 11:15:00,
2013-02-21 05:30:00,34.1,25.0,30.16,East,94,2.0,3.0,68,0.00,,,0.00,weatherlink.com 1.10,2013-02-21 11:30:00,
2013-02-21 05:45:00,34.2,24.0,30.16,East,88,0.0,5.0,66,0.00,,,0.00,weatherlink.com 1.10,2013-02-21 11:45:00,
2013-02-21 06:01:00,34.3,24.0,30.14,East,86,0.0,6.0,66,0.00,,,0.00,weatherlink.com 1.10,2013-02-21 12:01:00,
2013-02-21 06:16:00,34.1,25.0,30.14,NNE,33,2.0,8.0,68,0.00,,,0.00,weatherlink.com 1.10,2013-02-21 12:16:00,
2013-02-21 06:31:00,34.3,24.0,30.15,ENE,77,2.0,5.0,67,0.00,,,0.00,weatherlink.com 1.10,2013-02-21 12:31:00,
2013-02-21 06:46:00,34.4,24.0,30.13,East,82,2.0,7.0,67,0.00,,,0.00,weatherlink.com 1.10,2013-02-21 12:46:00,
2013-02-21 07:01:00,34.5,25.0,30.13,East,79,4.0,4.0,67,0.00,,,0.00,weatherlink.com 1.10,2013-02-21 13:01:00,
2013-02-21 07:16:00,34.6,25.0,30.13,ESE,107,1.0,6.0,67,0.00,,,0.00,weatherlink.com 1.10,2013-02-21 13:16:00,
2013-02-21 07:31:00,34.8,25.0,30.13,East,88,2.0,3.0,67,0.00,,,0.00,weatherlink.com 1.10,2013-02-21 13:31:00,
2013-02-21 07:46:00,35.0,25.0,30.12,ENE,74,1.0,5.0,67,0.00,,,0.00,weatherlink.com 1.10,2013-02-21 13:46:00,
2013-02-21 08:01:00,35.4,25.0,30.12,ENE,72,1.0,6.0,67,0.00,,,0.00,weatherlink.com 1.10,2013-02-21 14:01:00,
2013-02-21 08:16:00,35.9,26.0,30.09,SE,130,1.0,4.0,67,0.00,,,0.00,weatherlink.com 1.10,2013-02-21 14:16:00,
2013-02-21 08:31:00,36.7,26.0,30.09,ENE,72,1.0,4.0,65,0.00,,,0.00,weatherlink.com 1.10,2013-02-21 14:31:00,
2013-02-21 08:46:00,36.9,25.0,30.10,ENE,70,1.0,4.0,63,0.01,,,0.01,weatherlink.com 1.10,2013-02-21 14:46:00,
2013-02-21 09:01:00,37.7,26.0,30.08,East,82,1.0,5.0,64,0.01,,,0.01,weatherlink.com 1.10,2013-02-21 15:01:00,
2013-02-21 09:16:00,38.1,26.0,30.06,East,84,1.0,7.0,61,0.01,,,0.01,weatherlink.com 1.10,2013-02-21 15:16:00,
2013-02-21 09:31:00,38.6,26.0,30.03,ENE,65,2.0,4.0,61,0.01,,,0.01,weatherlink.com 1.10,2013-02-21 15:31:00,
2013-02-21 09:46:00,39.1,26.0,30.02,NNE,13,5.0,5.0,59,0.00,,,0.01,weatherlink.com 1.10,2013-02-21 15:46:00,
2013-02-21 10:01:00,39.8,25.0,30.02,East,84,1.0,4.0,56,0.00,,,0.01,weatherlink.com 1.10,2013-02-21 16:01:00,
2013-02-21 10:16:00,40.5,25.0,29.97,East,96,1.0,7.0,54,0.00,,,0.01,weatherlink.com 1.10,2013-02-21 16:16:00,
2013-02-21 10:31:00,41.2,25.0,29.95,East,82,2.0,8.0,53,0.00,,,0.01,weatherlink.com 1.10,2013-02-21 16:31:00,
2013-02-21 10:46:00,41.6,25.0,29.95,East,94,0.0,6.0,52,0.00,,,0.01,weatherlink.com 1.10,2013-02-21 16:46:00,
2013-02-21 11:01:00,42.2,25.0,29.96,East,92,1.0,6.0,50,0.00,,,0.01,weatherlink.com 1.10,2013-02-21 17:01:00,
2013-02-21 11:16:00,42.5,25.0,29.93,East,79,1.0,4.0,50,0.00,,,0.01,weatherlink.com 1.10,2013-02-21 17:16:00,
2013-02-21 11:31:00,42.7,25.0,29.87,East,84,3.0,5.0,50,0.00,,,0.01,weatherlink.com 1.10,2013-02-21 17:31:00,
2013-02-21 11:46:00,42.9,26.0,29.90,East,82,1.0,4.0,51,0.00,,,0.01,weatherlink.com 1.10,2013-02-21 17:46:00,
2013-02-21 12:01:00,43.1,30.0,29.95,East,82,0.0,2.0,60,0.02,,,0.03,weatherlink.com 1.10,2013-02-21 18:01:00,
2013-02-21 12:16:00,41.1,33.0,29.93,East,80,1.0,1.0,73,0.07,,,0.08,weatherlink.com 1.10,2013-02-21 18:16:00,
2013-02-21 12:32:00,39.8,34.0,29.89,ENE,68,0.0,2.0,80,0.11,,,0.12,weatherlink.com 1.10,2013-02-21 18:32:00,
2013-02-21 12:47:00,39.4,35.0,29.93,West,273,0.0,1.0,85,0.13,,,0.14,weatherlink.com 1.10,2013-02-21 18:47:00,
2013-02-21 13:02:00,39.0,35.0,29.94,West,273,0.0,0.0,86,0.19,,,0.22,weatherlink.com 1.10,2013-02-21 19:02:00,
2013-02-21 13:17:00,38.7,36.0,29.92,ENE,72,1.0,1.0,89,0.22,,,0.30,weatherlink.com 1.10,2013-02-21 19:17:00,
2013-02-21 13:32:00,38.4,36.0,29.89,East,82,1.0,2.0,90,0.23,,,0.35,weatherlink.com 1.10,2013-02-21 19:32:00,
2013-02-21 13:47:00,38.1,36.0,29.87,East,87,0.0,5.0,91,0.29,,,0.43,weatherlink.com 1.10,2013-02-21 19:47:00,
2013-02-21 14:02:00,38.3,36.0,29.88,ENE,73,1.0,4.0,91,0.22,,,0.44,weatherlink.com 1.10,2013-02-21 20:02:00,
2013-02-21 14:17:00,38.4,36.0,29.85,East,79,2.0,3.0,91,0.21,,,0.51,weatherlink.com 1.10,2013-02-21 20:17:00,
2013-02-21 14:32:00,38.4,36.0,29.84,ESE,105,1.0,4.0,92,0.22,,,0.57,weatherlink.com 1.10,2013-02-21 20:32:00,
2013-02-21 14:47:00,38.8,37.0,29.84,ESE,108,0.0,6.0,92,0.16,,,0.59,weatherlink.com 1.10,2013-02-21 20:47:00,
2013-02-21 15:02:00,39.2,37.0,29.85,NE,53,2.0,4.0,92,0.19,,,0.63,weatherlink.com 1.10,2013-02-21 21:02:00,
2013-02-21 15:17:00,39.5,37.0,29.84,East,89,0.0,3.0,92,0.11,,,0.63,weatherlink.com 1.10,2013-02-21 21:17:00,
2013-02-21 15:32:00,39.8,38.0,29.83,SSE,153,0.0,4.0,93,0.07,,,0.65,weatherlink.com 1.10,2013-02-21 21:32:00,
2013-02-21 15:47:00,40.2,38.0,29.82,NNE,24,0.0,5.0,93,0.05,,,0.65,weatherlink.com 1.10,2013-02-21 21:47:00,
2013-02-21 16:02:00,40.7,39.0,29.82,ENE,77,0.0,5.0,93,0.04,,,0.67,weatherlink.com 1.10,2013-02-21 22:02:00,
2013-02-21 16:17:00,41.2,39.0,29.82,East,81,1.0,5.0,93,0.05,,,0.68,weatherlink.com 1.10,2013-02-21 22:17:00,
2013-02-21 16:32:00,42.0,40.0,29.84,East,98,1.0,2.0,93,0.04,,,0.69,weatherlink.com 1.10,2013-02-21 22:32:00,
2013-02-21 16:47:00,42.4,40.0,29.83,East,91,1.0,1.0,92,0.06,,,0.71,weatherlink.com 1.10,2013-02-21 22:47:00,
2013-02-21 17:02:00,42.8,41.0,29.81,SSW,212,2.0,4.0,93,0.04,,,0.71,weatherlink.com 1.10,2013-02-21 23:02:00,
2013-02-21 17:17:00,43.1,41.0,29.81,SE,136,0.0,2.0,93,0.03,,,0.71,weatherlink.com 1.10,2013-02-21 23:17:00,
2013-02-21 17:32:00,43.5,42.0,29.82,ESE,107,1.0,3.0,93,0.03,,,0.72,weatherlink.com 1.10,2013-02-21 23:32:00,
2013-02-21 17:47:00,43.8,42.0,29.82,SE,141,3.0,6.0,92,0.01,,,0.72,weatherlink.com 1.10,2013-02-21 23:47:00,
2013-02-21 18:02:00,44.1,42.0,29.80,South,169,0.0,4.0,92,0.01,,,0.72,weatherlink.com 1.10,2013-02-22 00:02:00,
2013-02-21 18:17:00,44.3,42.0,29.80,ESE,122,0.0,2.0,92,0.01,,,0.72,weatherlink.com 1.10,2013-02-22 00:17:00,
2013-02-21 18:32:00,44.4,42.0,29.79,East,89,1.0,3.0,92,0.00,,,0.72,weatherlink.com 1.10,2013-02-22 00:32:00,
2013-02-21 18:47:00,44.7,43.0,29.80,East,82,1.0,4.0,92,0.00,,,0.72,weatherlink.com 1.10,2013-02-22 00:47:00,
2013-02-21 19:02:00,45.0,43.0,29.80,SE,135,1.0,4.0,91,0.00,,,0.72,weatherlink.com 1.10,2013-02-22 01:02:00,
2013-02-21 19:17:00,45.5,43.0,29.79,SSE,148,1.0,5.0,91,0.00,,,0.72,weatherlink.com 1.10,2013-02-22 01:17:00,
2013-02-21 19:32:00,45.8,43.0,29.79,SE,136,1.0,4.0,91,0.00,,,0.72,weatherlink.com 1.10,2013-02-22 01:32:00,
2013-02-21 19:47:00,46.1,44.0,29.79,ESE,118,1.0,4.0,92,0.00,,,0.72,weatherlink.com 1.10,2013-02-22 01:47:00,
2013-02-21 20:02:00,46.7,45.0,29.83,WNW,283,1.0,9.0,92,0.01,,,0.73,weatherlink.com 1.10,2013-02-22 02:02:00,
2013-02-21 20:17:00,46.5,44.0,29.83,SW,232,1.0,3.0,92,0.01,,,0.73,weatherlink.com 1.10,2013-02-22 02:17:00,
2013-02-21 20:32:00,46.3,44.0,29.83,WSW,257,0.0,4.0,93,0.01,,,0.73,weatherlink.com 1.10,2013-02-22 02:32:00,
2013-02-21 20:47:00,46.1,44.0,29.84,West,276,0.0,1.0,93,0.01,,,0.73,weatherlink.com 1.10,2013-02-22 02:47:00,
2013-02-21 21:02:00,46.0,44.0,29.85,WNW,302,0.0,1.0,94,0.01,,,0.74,weatherlink.com 1.10,2013-02-22 03:02:00,
2013-02-21 21:17:00,45.9,44.0,29.86,NE,56,0.0,0.0,94,0.01,,,0.74,weatherlink.com 1.10,2013-02-22 03:17:00,
2013-02-21 21:32:00,45.9,44.0,29.86,NE,56,0.0,1.0,94,0.01,,,0.74,weatherlink.com 1.10,2013-02-22 03:32:00,
2013-02-21 21:47:00,46.0,45.0,29.87,WSW,253,0.0,1.0,95,0.01,,,0.74,weatherlink.com 1.10,2013-02-22 03:47:00,
2013-02-21 22:02:00,46.0,45.0,29.89,West,259,0.0,2.0,95,0.00,,,0.74,weatherlink.com 1.10,2013-02-22 04:02:00,
2013-02-21 22:32:00,46.1,45.0,29.89,West,260,1.0,2.0,95,0.00,,,0.74,weatherlink.com 1.10,2013-02-22 04:32:00,
2013-02-21 22:47:00,46.0,45.0,29.89,SW,225,2.0,3.0,95,0.00,,,0.74,weatherlink.com 1.10,2013-02-22 04:47:00,
2013-02-21 23:02:00,45.8,45.0,29.89,SW,235,0.0,3.0,95,0.00,,,0.74,weatherlink.com 1.10,2013-02-22 05:02:00,
2013-02-21 23:17:00,45.7,44.0,29.90,West,262,1.0,6.0,95,0.00,,,0.74,weatherlink.com 1.10,2013-02-22 05:17:00,
2013-02-21 23:32:00,44.8,43.0,29.91,NW,309,4.0,6.0,94,0.00,,,0.74,weatherlink.com 1.10,2013-02-22 05:32:00,
2013-02-21 23:48:00,44.0,42.0,29.92,WNW,294,3.0,6.0,94,0.00,,,0.74,weatherlink.com 1.10,2013-02-22 05:48:00,